sensor_id;sensor_type;location;lat;lon;timestamp;P1;durP1;ratioP1;P2;durP2;ratioP2
43114;SDS011;28727;50.068;14.452;2023-02-28T00:00:42;11.68;;;6.45;;
43114;SDS011;28727;50.068;14.452;2023-02-28T00:03:15;12.80;;;7.15;;
43114;SDS011;28727;50.068;14.452;2023-02-28T00:05:47;14.65;;;6.78;;
43114;SDS011;28727;50.068;14.452;2023-02-28T00:08:19;15.45;;;7.03;;
43114;SDS011;28727;50.068;14.452;2023-02-28T00:10:50;12.50;;;6.30;;
43114;SDS011;28727;50.068;14.452;2023-02-28T00:13:22;11.07;;;7.20;;
43114;SDS011;28727;50.068;14.452;2023-02-28T00:16:01;13.43;;;7.32;;
43114;SDS011;28727;50.068;14.452;2023-02-28T00:18:38;12.13;;;6.95;;
43114;SDS011;28727;50.068;14.452;2023-02-28T00:21:10;12.20;;;6.75;;
43114;SDS011;28727;50.068;14.452;2023-02-28T00:23:42;13.05;;;7.38;;
43114;SDS011;28727;50.068;14.452;2023-02-28T00:26:15;11.85;;;6.97;;
43114;SDS011;28727;50.068;14.452;2023-02-28T00:28:53;11.07;;;7.03;;
43114;SDS011;28727;50.068;14.452;2023-02-28T00:31:26;13.60;;;7.60;;
43114;SDS011;28727;50.068;14.452;2023-02-28T00:33:59;16.10;;;7.20;;
43114;SDS011;28727;50.068;14.452;2023-02-28T00:36:31;14.32;;;7.63;;
43114;SDS011;28727;50.068;14.452;2023-02-28T00:39:03;13.18;;;7.10;;
43114;SDS011;28727;50.068;14.452;2023-02-28T00:41:34;12.77;;;6.95;;
43114;SDS011;28727;50.068;14.452;2023-02-28T00:44:06;12.00;;;7.25;;
43114;SDS011;28727;50.068;14.452;2023-02-28T00:46:39;13.65;;;6.95;;
43114;SDS011;28727;50.068;14.452;2023-02-28T00:49:11;13.25;;;7.70;;
43114;SDS011;28727;50.068;14.452;2023-02-28T00:51:49;13.55;;;7.20;;
43114;SDS011;28727;50.068;14.452;2023-02-28T00:54:24;11.52;;;6.78;;
43114;SDS011;28727;50.068;14.452;2023-02-28T00:56:56;12.25;;;6.97;;
43114;SDS011;28727;50.068;14.452;2023-02-28T00:59:30;14.57;;;7.35;;
43114;SDS011;28727;50.068;14.452;2023-02-28T01:02:10;13.77;;;7.38;;
43114;SDS011;28727;50.068;14.452;2023-02-28T01:04:43;11.50;;;7.20;;
43114;SDS011;28727;50.068;14.452;2023-02-28T01:07:15;11.60;;;6.93;;
43114;SDS011;28727;50.068;14.452;2023-02-28T01:09:47;13.68;;;7.30;;
43114;SDS011;28727;50.068;14.452;2023-02-28T01:12:20;12.05;;;6.97;;
43114;SDS011;28727;50.068;14.452;2023-02-28T01:14:52;16.58;;;7.35;;
43114;SDS011;28727;50.068;14.452;2023-02-28T01:17:25;14.02;;;7.63;;
43114;SDS011;28727;50.068;14.452;2023-02-28T01:19:57;11.82;;;6.93;;
43114;SDS011;28727;50.068;14.452;2023-02-28T01:22:30;12.68;;;7.78;;
43114;SDS011;28727;50.068;14.452;2023-02-28T01:25:11;12.15;;;6.93;;
43114;SDS011;28727;50.068;14.452;2023-02-28T01:27:46;13.82;;;7.20;;
43114;SDS011;28727;50.068;14.452;2023-02-28T01:30:18;12.02;;;6.68;;
43114;SDS011;28727;50.068;14.452;2023-02-28T01:32:51;12.82;;;7.43;;
43114;SDS011;28727;50.068;14.452;2023-02-28T01:35:24;11.75;;;7.05;;
43114;SDS011;28727;50.068;14.452;2023-02-28T01:37:59;14.63;;;7.40;;
43114;SDS011;28727;50.068;14.452;2023-02-28T01:40:54;15.63;;;7.45;;
43114;SDS011;28727;50.068;14.452;2023-02-28T01:46:19;16.00;;;7.40;;
43114;SDS011;28727;50.068;14.452;2023-02-28T01:48:57;11.85;;;6.57;;
43114;SDS011;28727;50.068;14.452;2023-02-28T01:51:49;14.50;;;7.00;;
43114;SDS011;28727;50.068;14.452;2023-02-28T01:54:27;12.80;;;6.82;;
43114;SDS011;28727;50.068;14.452;2023-02-28T01:57:09;13.18;;;7.82;;
43114;SDS011;28727;50.068;14.452;2023-02-28T01:59:52;12.13;;;6.72;;
43114;SDS011;28727;50.068;14.452;2023-02-28T02:02:29;17.38;;;7.63;;
43114;SDS011;28727;50.068;14.452;2023-02-28T02:05:05;12.48;;;7.35;;
43114;SDS011;28727;50.068;14.452;2023-02-28T02:07:39;11.73;;;6.78;;
43114;SDS011;28727;50.068;14.452;2023-02-28T02:10:21;10.57;;;5.85;;
43114;SDS011;28727;50.068;14.452;2023-02-28T02:24:58;12.77;;;6.78;;
43114;SDS011;28727;50.068;14.452;2023-02-28T02:43:10;8.68;;;5.40;;
43114;SDS011;28727;50.068;14.452;2023-02-28T02:48:06;13.93;;;6.47;;
43114;SDS011;28727;50.068;14.452;2023-02-28T02:51:03;10.07;;;5.50;;
43114;SDS011;28727;50.068;14.452;2023-02-28T02:53:54;12.50;;;6.45;;
43114;SDS011;28727;50.068;14.452;2023-02-28T02:57:01;9.85;;;4.75;;
43114;SDS011;28727;50.068;14.452;2023-02-28T02:59:38;12.63;;;5.97;;
43114;SDS011;28727;50.068;14.452;2023-02-28T03:02:12;11.60;;;5.93;;
43114;SDS011;28727;50.068;14.452;2023-02-28T03:04:50;11.32;;;6.20;;
43114;SDS011;28727;50.068;14.452;2023-02-28T03:07:35;12.80;;;6.40;;
43114;SDS011;28727;50.068;14.452;2023-02-28T03:27:29;13.68;;;6.03;;
43114;SDS011;28727;50.068;14.452;2023-02-28T03:30:14;14.10;;;6.82;;
43114;SDS011;28727;50.068;14.452;2023-02-28T03:33:08;12.82;;;6.20;;
43114;SDS011;28727;50.068;14.452;2023-02-28T03:35:54;12.98;;;6.25;;
43114;SDS011;28727;50.068;14.452;2023-02-28T03:38:44;12.75;;;6.50;;
43114;SDS011;28727;50.068;14.452;2023-02-28T03:41:25;10.77;;;6.10;;
43114;SDS011;28727;50.068;14.452;2023-02-28T03:44:14;12.77;;;6.72;;
43114;SDS011;28727;50.068;14.452;2023-02-28T03:46:52;11.15;;;5.68;;
43114;SDS011;28727;50.068;14.452;2023-02-28T03:49:35;11.10;;;5.57;;
43114;SDS011;28727;50.068;14.452;2023-02-28T03:52:31;13.40;;;5.75;;
43114;SDS011;28727;50.068;14.452;2023-02-28T03:55:10;14.30;;;6.78;;
43114;SDS011;28727;50.068;14.452;2023-02-28T04:00:34;14.02;;;6.28;;
43114;SDS011;28727;50.068;14.452;2023-02-28T04:03:15;12.05;;;5.75;;
43114;SDS011;28727;50.068;14.452;2023-02-28T04:05:49;15.57;;;6.65;;
43114;SDS011;28727;50.068;14.452;2023-02-28T04:08:23;11.32;;;6.38;;
43114;SDS011;28727;50.068;14.452;2023-02-28T04:11:06;14.95;;;6.75;;
43114;SDS011;28727;50.068;14.452;2023-02-28T04:13:52;15.30;;;7.22;;
43114;SDS011;28727;50.068;14.452;2023-02-28T04:19:06;10.70;;;6.45;;
43114;SDS011;28727;50.068;14.452;2023-02-28T04:21:43;13.50;;;7.03;;
43114;SDS011;28727;50.068;14.452;2023-02-28T04:24:17;11.90;;;6.57;;
43114;SDS011;28727;50.068;14.452;2023-02-28T04:26:56;13.55;;;6.75;;
43114;SDS011;28727;50.068;14.452;2023-02-28T04:29:31;13.53;;;6.90;;
43114;SDS011;28727;50.068;14.452;2023-02-28T04:32:15;13.20;;;6.68;;
43114;SDS011;28727;50.068;14.452;2023-02-28T04:34:49;14.93;;;6.78;;
43114;SDS011;28727;50.068;14.452;2023-02-28T04:37:27;13.10;;;6.88;;
43114;SDS011;28727;50.068;14.452;2023-02-28T04:40:00;14.25;;;7.18;;
43114;SDS011;28727;50.068;14.452;2023-02-28T04:42:35;14.30;;;7.30;;
43114;SDS011;28727;50.068;14.452;2023-02-28T04:45:07;16.42;;;7.82;;
43114;SDS011;28727;50.068;14.452;2023-02-28T04:47:42;8.80;;;5.35;;
43114;SDS011;28727;50.068;14.452;2023-02-28T04:50:14;11.68;;;6.97;;
43114;SDS011;28727;50.068;14.452;2023-02-28T04:52:49;12.52;;;6.57;;
43114;SDS011;28727;50.068;14.452;2023-02-28T04:55:21;11.25;;;6.63;;
43114;SDS011;28727;50.068;14.452;2023-02-28T04:57:54;13.07;;;6.75;;
43114;SDS011;28727;50.068;14.452;2023-02-28T05:00:26;12.95;;;6.93;;
43114;SDS011;28727;50.068;14.452;2023-02-28T05:02:58;14.10;;;7.10;;
43114;SDS011;28727;50.068;14.452;2023-02-28T05:05:33;17.33;;;7.18;;
43114;SDS011;28727;50.068;14.452;2023-02-28T05:10:36;12.85;;;6.82;;
43114;SDS011;28727;50.068;14.452;2023-02-28T05:13:20;14.50;;;6.60;;
43114;SDS011;28727;50.068;14.452;2023-02-28T05:15:52;16.58;;;7.20;;
43114;SDS011;28727;50.068;14.452;2023-02-28T05:18:25;15.10;;;7.80;;
43114;SDS011;28727;50.068;14.452;2023-02-28T05:20:56;14.10;;;7.32;;
43114;SDS011;28727;50.068;14.452;2023-02-28T05:23:28;12.98;;;7.03;;
43114;SDS011;28727;50.068;14.452;2023-02-28T05:26:03;12.93;;;7.30;;
43114;SDS011;28727;50.068;14.452;2023-02-28T05:28:35;11.98;;;7.00;;
43114;SDS011;28727;50.068;14.452;2023-02-28T05:31:17;14.55;;;7.03;;
43114;SDS011;28727;50.068;14.452;2023-02-28T05:34:00;13.90;;;7.03;;
43114;SDS011;28727;50.068;14.452;2023-02-28T05:36:38;12.88;;;6.80;;
43114;SDS011;28727;50.068;14.452;2023-02-28T05:39:13;14.52;;;7.32;;
43114;SDS011;28727;50.068;14.452;2023-02-28T05:41:44;17.63;;;7.85;;
43114;SDS011;28727;50.068;14.452;2023-02-28T05:44:16;14.00;;;7.60;;
43114;SDS011;28727;50.068;14.452;2023-02-28T05:46:48;13.13;;;7.35;;
43114;SDS011;28727;50.068;14.452;2023-02-28T05:49:20;14.27;;;7.80;;
43114;SDS011;28727;50.068;14.452;2023-02-28T05:51:54;16.02;;;6.80;;
43114;SDS011;28727;50.068;14.452;2023-02-28T05:54:26;16.48;;;7.78;;
43114;SDS011;28727;50.068;14.452;2023-02-28T05:56:57;11.43;;;6.50;;
43114;SDS011;28727;50.068;14.452;2023-02-28T05:59:29;14.40;;;7.20;;
43114;SDS011;28727;50.068;14.452;2023-02-28T06:02:02;13.35;;;6.40;;
43114;SDS011;28727;50.068;14.452;2023-02-28T06:04:34;10.85;;;5.30;;
43114;SDS011;28727;50.068;14.452;2023-02-28T06:07:08;23.13;;;7.85;;
43114;SDS011;28727;50.068;14.452;2023-02-28T06:09:43;15.05;;;6.68;;
43114;SDS011;28727;50.068;14.452;2023-02-28T06:12:14;17.00;;;6.97;;
43114;SDS011;28727;50.068;14.452;2023-02-28T06:14:46;14.50;;;7.38;;
43114;SDS011;28727;50.068;14.452;2023-02-28T06:17:18;14.77;;;7.38;;
43114;SDS011;28727;50.068;14.452;2023-02-28T06:19:51;17.48;;;7.13;;
43114;SDS011;28727;50.068;14.452;2023-02-28T06:22:22;16.98;;;7.50;;
43114;SDS011;28727;50.068;14.452;2023-02-28T06:24:54;13.70;;;6.35;;
43114;SDS011;28727;50.068;14.452;2023-02-28T06:27:26;12.90;;;7.32;;
43114;SDS011;28727;50.068;14.452;2023-02-28T06:29:58;15.65;;;8.18;;
43114;SDS011;28727;50.068;14.452;2023-02-28T06:32:32;12.38;;;7.00;;
43114;SDS011;28727;50.068;14.452;2023-02-28T06:37:36;16.20;;;6.97;;
43114;SDS011;28727;50.068;14.452;2023-02-28T06:40:10;14.27;;;7.28;;
43114;SDS011;28727;50.068;14.452;2023-02-28T06:42:44;12.82;;;7.28;;
43114;SDS011;28727;50.068;14.452;2023-02-28T06:45:16;11.68;;;7.40;;
43114;SDS011;28727;50.068;14.452;2023-02-28T06:47:48;11.50;;;6.97;;
43114;SDS011;28727;50.068;14.452;2023-02-28T06:50:24;10.85;;;7.00;;
43114;SDS011;28727;50.068;14.452;2023-02-28T06:52:58;12.95;;;7.40;;
43114;SDS011;28727;50.068;14.452;2023-02-28T06:55:30;12.57;;;7.43;;
43114;SDS011;28727;50.068;14.452;2023-02-28T06:58:02;12.00;;;7.30;;
43114;SDS011;28727;50.068;14.452;2023-02-28T07:00:50;14.17;;;7.90;;
43114;SDS011;28727;50.068;14.452;2023-02-28T07:03:24;13.02;;;7.93;;
43114;SDS011;28727;50.068;14.452;2023-02-28T07:05:58;12.95;;;6.80;;
43114;SDS011;28727;50.068;14.452;2023-02-28T07:08:30;13.98;;;7.55;;
43114;SDS011;28727;50.068;14.452;2023-02-28T07:11:03;13.15;;;7.28;;
43114;SDS011;28727;50.068;14.452;2023-02-28T07:13:36;14.60;;;6.70;;
43114;SDS011;28727;50.068;14.452;2023-02-28T07:16:13;11.65;;;6.97;;
43114;SDS011;28727;50.068;14.452;2023-02-28T07:18:45;10.65;;;6.93;;
43114;SDS011;28727;50.068;14.452;2023-02-28T07:21:17;11.13;;;7.43;;
43114;SDS011;28727;50.068;14.452;2023-02-28T07:23:56;13.77;;;7.20;;
43114;SDS011;28727;50.068;14.452;2023-02-28T07:26:30;12.93;;;6.80;;
43114;SDS011;28727;50.068;14.452;2023-02-28T07:29:05;11.95;;;6.95;;
43114;SDS011;28727;50.068;14.452;2023-02-28T07:31:39;11.23;;;7.30;;
43114;SDS011;28727;50.068;14.452;2023-02-28T07:34:12;12.10;;;8.07;;
43114;SDS011;28727;50.068;14.452;2023-02-28T07:36:44;12.25;;;7.18;;
43114;SDS011;28727;50.068;14.452;2023-02-28T07:39:25;10.25;;;6.80;;
43114;SDS011;28727;50.068;14.452;2023-02-28T07:42:00;12.88;;;7.00;;
43114;SDS011;28727;50.068;14.452;2023-02-28T07:44:40;11.88;;;7.38;;
43114;SDS011;28727;50.068;14.452;2023-02-28T07:47:12;15.43;;;7.95;;
43114;SDS011;28727;50.068;14.452;2023-02-28T07:49:44;11.93;;;7.78;;
43114;SDS011;28727;50.068;14.452;2023-02-28T07:52:16;11.25;;;7.05;;
43114;SDS011;28727;50.068;14.452;2023-02-28T07:54:48;13.93;;;7.78;;
43114;SDS011;28727;50.068;14.452;2023-02-28T07:57:24;10.95;;;7.55;;
43114;SDS011;28727;50.068;14.452;2023-02-28T08:00:03;14.02;;;8.15;;
43114;SDS011;28727;50.068;14.452;2023-02-28T08:02:44;16.17;;;8.23;;
43114;SDS011;28727;50.068;14.452;2023-02-28T08:05:22;12.88;;;7.75;;
43114;SDS011;28727;50.068;14.452;2023-02-28T08:07:56;14.20;;;8.40;;
43114;SDS011;28727;50.068;14.452;2023-02-28T08:10:28;15.10;;;7.93;;
43114;SDS011;28727;50.068;14.452;2023-02-28T08:13:00;13.25;;;7.45;;
43114;SDS011;28727;50.068;14.452;2023-02-28T08:15:32;12.73;;;7.10;;
43114;SDS011;28727;50.068;14.452;2023-02-28T08:18:28;15.32;;;8.02;;
43114;SDS011;28727;50.068;14.452;2023-02-28T08:21:08;12.68;;;7.93;;
43114;SDS011;28727;50.068;14.452;2023-02-28T08:23:41;11.50;;;7.15;;
43114;SDS011;28727;50.068;14.452;2023-02-28T08:26:13;12.52;;;7.60;;
43114;SDS011;28727;50.068;14.452;2023-02-28T08:28:45;11.95;;;8.20;;
43114;SDS011;28727;50.068;14.452;2023-02-28T08:31:19;15.20;;;7.93;;
43114;SDS011;28727;50.068;14.452;2023-02-28T08:33:51;13.65;;;8.23;;
43114;SDS011;28727;50.068;14.452;2023-02-28T08:36:25;13.75;;;7.68;;
43114;SDS011;28727;50.068;14.452;2023-02-28T08:38:57;15.32;;;8.32;;
43114;SDS011;28727;50.068;14.452;2023-02-28T08:41:31;13.25;;;7.22;;
43114;SDS011;28727;50.068;14.452;2023-02-28T08:44:03;13.02;;;8.25;;
43114;SDS011;28727;50.068;14.452;2023-02-28T08:46:35;11.18;;;6.80;;
43114;SDS011;28727;50.068;14.452;2023-02-28T08:49:31;12.57;;;7.28;;
43114;SDS011;28727;50.068;14.452;2023-02-28T08:52:03;12.65;;;7.35;;
43114;SDS011;28727;50.068;14.452;2023-02-28T08:54:35;12.85;;;7.47;;
43114;SDS011;28727;50.068;14.452;2023-02-28T08:57:07;14.63;;;7.95;;
43114;SDS011;28727;50.068;14.452;2023-02-28T08:59:39;13.70;;;7.20;;
43114;SDS011;28727;50.068;14.452;2023-02-28T09:02:18;14.00;;;7.82;;
43114;SDS011;28727;50.068;14.452;2023-02-28T09:04:51;13.80;;;7.80;;
43114;SDS011;28727;50.068;14.452;2023-02-28T09:07:25;12.70;;;8.30;;
43114;SDS011;28727;50.068;14.452;2023-02-28T09:10:04;13.65;;;7.72;;
43114;SDS011;28727;50.068;14.452;2023-02-28T09:12:35;15.95;;;8.20;;
43114;SDS011;28727;50.068;14.452;2023-02-28T09:15:07;13.25;;;7.35;;
43114;SDS011;28727;50.068;14.452;2023-02-28T09:17:41;13.13;;;7.03;;
43114;SDS011;28727;50.068;14.452;2023-02-28T09:20:16;10.55;;;6.95;;
43114;SDS011;28727;50.068;14.452;2023-02-28T09:22:47;11.63;;;6.80;;
43114;SDS011;28727;50.068;14.452;2023-02-28T09:25:19;10.07;;;5.97;;
43114;SDS011;28727;50.068;14.452;2023-02-28T09:27:54;12.60;;;7.15;;
43114;SDS011;28727;50.068;14.452;2023-02-28T09:30:28;10.80;;;7.28;;
43114;SDS011;28727;50.068;14.452;2023-02-28T09:35:38;10.10;;;6.38;;
43114;SDS011;28727;50.068;14.452;2023-02-28T09:38:10;10.90;;;6.93;;
43114;SDS011;28727;50.068;14.452;2023-02-28T09:41:08;12.13;;;6.68;;
43114;SDS011;28727;50.068;14.452;2023-02-28T09:43:45;9.98;;;6.22;;
43114;SDS011;28727;50.068;14.452;2023-02-28T09:46:37;10.27;;;6.43;;
43114;SDS011;28727;50.068;14.452;2023-02-28T09:49:19;11.70;;;7.90;;
43114;SDS011;28727;50.068;14.452;2023-02-28T09:52:04;15.98;;;7.68;;
43114;SDS011;28727;50.068;14.452;2023-02-28T09:54:41;15.82;;;8.68;;
43114;SDS011;28727;50.068;14.452;2023-02-28T09:57:25;12.55;;;7.60;;
43114;SDS011;28727;50.068;14.452;2023-02-28T10:03:10;15.05;;;8.00;;
43114;SDS011;28727;50.068;14.452;2023-02-28T10:06:05;11.65;;;7.82;;
43114;SDS011;28727;50.068;14.452;2023-02-28T10:09:03;13.20;;;7.57;;
43114;SDS011;28727;50.068;14.452;2023-02-28T10:11:43;12.52;;;7.75;;
43114;SDS011;28727;50.068;14.452;2023-02-28T10:14:23;13.45;;;7.53;;
43114;SDS011;28727;50.068;14.452;2023-02-28T10:16:58;12.13;;;7.43;;
43114;SDS011;28727;50.068;14.452;2023-02-28T10:25:39;12.02;;;7.43;;
43114;SDS011;28727;50.068;14.452;2023-02-28T10:28:12;13.40;;;8.10;;
43114;SDS011;28727;50.068;14.452;2023-02-28T10:30:54;14.32;;;8.93;;
43114;SDS011;28727;50.068;14.452;2023-02-28T10:33:33;11.63;;;7.75;;
43114;SDS011;28727;50.068;14.452;2023-02-28T10:36:08;10.68;;;7.60;;
43114;SDS011;28727;50.068;14.452;2023-02-28T10:38:46;12.30;;;7.78;;
43114;SDS011;28727;50.068;14.452;2023-02-28T10:44:14;15.55;;;9.20;;
43114;SDS011;28727;50.068;14.452;2023-02-28T10:46:54;12.32;;;7.68;;
43114;SDS011;28727;50.068;14.452;2023-02-28T10:49:28;13.07;;;8.15;;
43114;SDS011;28727;50.068;14.452;2023-02-28T10:52:01;11.63;;;7.63;;
43114;SDS011;28727;50.068;14.452;2023-02-28T10:54:34;11.77;;;8.15;;
43114;SDS011;28727;50.068;14.452;2023-02-28T10:57:22;12.77;;;8.57;;
43114;SDS011;28727;50.068;14.452;2023-02-28T11:00:34;14.48;;;7.78;;
43114;SDS011;28727;50.068;14.452;2023-02-28T11:03:21;15.38;;;8.30;;
43114;SDS011;28727;50.068;14.452;2023-02-28T11:06:06;12.15;;;8.05;;
43114;SDS011;28727;50.068;14.452;2023-02-28T11:08:49;12.48;;;8.15;;
43114;SDS011;28727;50.068;14.452;2023-02-28T11:14:03;11.05;;;7.63;;
43114;SDS011;28727;50.068;14.452;2023-02-28T11:17:24;17.38;;;10.48;;
43114;SDS011;28727;50.068;14.452;2023-02-28T11:20:04;10.98;;;7.90;;
43114;SDS011;28727;50.068;14.452;2023-02-28T11:22:43;12.23;;;7.90;;
43114;SDS011;28727;50.068;14.452;2023-02-28T11:25:21;12.40;;;7.93;;
43114;SDS011;28727;50.068;14.452;2023-02-28T11:27:59;23.58;;;11.45;;
43114;SDS011;28727;50.068;14.452;2023-02-28T11:30:43;22.30;;;10.93;;
43114;SDS011;28727;50.068;14.452;2023-02-28T11:36:26;16.40;;;10.18;;
43114;SDS011;28727;50.068;14.452;2023-02-28T11:39:09;15.00;;;9.05;;
43114;SDS011;28727;50.068;14.452;2023-02-28T11:48:04;13.00;;;8.07;;
43114;SDS011;28727;50.068;14.452;2023-02-28T11:56:55;15.10;;;7.90;;
43114;SDS011;28727;50.068;14.452;2023-02-28T12:15:05;11.13;;;8.13;;
43114;SDS011;28727;50.068;14.452;2023-02-28T12:18:11;17.63;;;8.82;;
43114;SDS011;28727;50.068;14.452;2023-02-28T12:21:01;14.23;;;8.43;;
43114;SDS011;28727;50.068;14.452;2023-02-28T12:26:45;12.82;;;8.70;;
43114;SDS011;28727;50.068;14.452;2023-02-28T12:32:05;17.92;;;8.82;;
43114;SDS011;28727;50.068;14.452;2023-02-28T12:37:27;15.82;;;8.98;;
43114;SDS011;28727;50.068;14.452;2023-02-28T12:40:04;16.92;;;9.57;;
43114;SDS011;28727;50.068;14.452;2023-02-28T12:42:43;14.60;;;9.07;;
43114;SDS011;28727;50.068;14.452;2023-02-28T12:47:56;12.88;;;8.63;;
43114;SDS011;28727;50.068;14.452;2023-02-28T12:50:34;16.27;;;9.80;;
43114;SDS011;28727;50.068;14.452;2023-02-28T12:55:57;14.43;;;9.13;;
43114;SDS011;28727;50.068;14.452;2023-02-28T12:59:00;14.43;;;9.10;;
43114;SDS011;28727;50.068;14.452;2023-02-28T13:01:46;13.68;;;8.38;;
43114;SDS011;28727;50.068;14.452;2023-02-28T13:04:53;14.30;;;9.18;;
43114;SDS011;28727;50.068;14.452;2023-02-28T13:10:50;14.90;;;8.93;;
43114;SDS011;28727;50.068;14.452;2023-02-28T13:13:36;13.43;;;8.00;;
43114;SDS011;28727;50.068;14.452;2023-02-28T13:16:09;14.85;;;8.90;;
43114;SDS011;28727;50.068;14.452;2023-02-28T13:18:45;16.52;;;9.88;;
43114;SDS011;28727;50.068;14.452;2023-02-28T13:21:22;19.85;;;10.70;;
43114;SDS011;28727;50.068;14.452;2023-02-28T13:24:08;14.68;;;9.40;;
43114;SDS011;28727;50.068;14.452;2023-02-28T13:32:27;13.32;;;8.15;;
43114;SDS011;28727;50.068;14.452;2023-02-28T13:37:37;12.65;;;8.63;;
43114;SDS011;28727;50.068;14.452;2023-02-28T13:40:35;15.93;;;9.18;;
43114;SDS011;28727;50.068;14.452;2023-02-28T13:43:09;14.68;;;8.90;;
43114;SDS011;28727;50.068;14.452;2023-02-28T13:45:44;13.63;;;8.23;;
43114;SDS011;28727;50.068;14.452;2023-02-28T13:48:52;14.25;;;8.95;;
43114;SDS011;28727;50.068;14.452;2023-02-28T13:51:41;13.93;;;8.52;;
43114;SDS011;28727;50.068;14.452;2023-02-28T14:03:54;13.63;;;9.00;;
43114;SDS011;28727;50.068;14.452;2023-02-28T14:06:31;16.10;;;9.43;;
43114;SDS011;28727;50.068;14.452;2023-02-28T14:11:58;16.52;;;9.82;;
43114;SDS011;28727;50.068;14.452;2023-02-28T14:18:10;16.05;;;9.38;;
43114;SDS011;28727;50.068;14.452;2023-02-28T14:20:45;15.55;;;9.65;;
43114;SDS011;28727;50.068;14.452;2023-02-28T14:26:02;17.98;;;9.05;;
43114;SDS011;28727;50.068;14.452;2023-02-28T14:31:58;13.38;;;8.75;;
43114;SDS011;28727;50.068;14.452;2023-02-28T14:37:32;16.50;;;8.73;;
43114;SDS011;28727;50.068;14.452;2023-02-28T14:40:21;15.70;;;8.88;;
43114;SDS011;28727;50.068;14.452;2023-02-28T14:43:02;16.55;;;9.38;;
43114;SDS011;28727;50.068;14.452;2023-02-28T14:45:35;14.23;;;9.10;;
43114;SDS011;28727;50.068;14.452;2023-02-28T14:48:09;15.80;;;9.48;;
43114;SDS011;28727;50.068;14.452;2023-02-28T14:50:48;18.05;;;9.45;;
43114;SDS011;28727;50.068;14.452;2023-02-28T14:53:23;19.20;;;10.75;;
43114;SDS011;28727;50.068;14.452;2023-02-28T14:55:58;17.65;;;9.55;;
43114;SDS011;28727;50.068;14.452;2023-02-28T15:01:05;14.48;;;8.65;;
43114;SDS011;28727;50.068;14.452;2023-02-28T15:04:04;18.58;;;10.02;;
43114;SDS011;28727;50.068;14.452;2023-02-28T15:06:37;15.50;;;9.02;;
43114;SDS011;28727;50.068;14.452;2023-02-28T15:09:14;14.25;;;8.63;;
43114;SDS011;28727;50.068;14.452;2023-02-28T15:11:48;16.98;;;10.15;;
43114;SDS011;28727;50.068;14.452;2023-02-28T15:14:21;14.93;;;9.32;;
43114;SDS011;28727;50.068;14.452;2023-02-28T15:16:58;14.80;;;9.52;;
43114;SDS011;28727;50.068;14.452;2023-02-28T15:19:34;16.05;;;9.32;;
43114;SDS011;28727;50.068;14.452;2023-02-28T15:22:12;15.57;;;9.85;;
43114;SDS011;28727;50.068;14.452;2023-02-28T15:24:50;15.40;;;10.18;;
43114;SDS011;28727;50.068;14.452;2023-02-28T15:27:25;15.68;;;8.90;;
43114;SDS011;28727;50.068;14.452;2023-02-28T15:30:11;16.33;;;9.68;;
43114;SDS011;28727;50.068;14.452;2023-02-28T15:35:43;14.68;;;9.43;;
43114;SDS011;28727;50.068;14.452;2023-02-28T15:38:23;18.27;;;10.38;;
43114;SDS011;28727;50.068;14.452;2023-02-28T15:40:57;18.08;;;10.25;;
43114;SDS011;28727;50.068;14.452;2023-02-28T15:43:32;16.52;;;10.05;;
43114;SDS011;28727;50.068;14.452;2023-02-28T15:46:12;17.83;;;10.88;;
43114;SDS011;28727;50.068;14.452;2023-02-28T15:48:51;16.13;;;9.70;;
43114;SDS011;28727;50.068;14.452;2023-02-28T15:51:37;18.02;;;10.25;;
43114;SDS011;28727;50.068;14.452;2023-02-28T15:54:12;16.50;;;10.40;;
43114;SDS011;28727;50.068;14.452;2023-02-28T15:56:51;16.75;;;10.13;;
43114;SDS011;28727;50.068;14.452;2023-02-28T15:59:26;16.95;;;10.13;;
43114;SDS011;28727;50.068;14.452;2023-02-28T16:02:02;17.52;;;10.50;;
43114;SDS011;28727;50.068;14.452;2023-02-28T16:05:00;17.23;;;9.98;;
43114;SDS011;28727;50.068;14.452;2023-02-28T16:07:49;20.27;;;10.18;;
43114;SDS011;28727;50.068;14.452;2023-02-28T16:10:21;18.85;;;10.80;;
43114;SDS011;28727;50.068;14.452;2023-02-28T16:12:57;17.98;;;10.73;;
43114;SDS011;28727;50.068;14.452;2023-02-28T16:15:29;18.55;;;9.95;;
43114;SDS011;28727;50.068;14.452;2023-02-28T16:18:07;17.23;;;9.50;;
43114;SDS011;28727;50.068;14.452;2023-02-28T16:20:41;17.83;;;9.73;;
43114;SDS011;28727;50.068;14.452;2023-02-28T16:23:15;16.42;;;9.48;;
43114;SDS011;28727;50.068;14.452;2023-02-28T16:25:47;15.65;;;9.57;;
43114;SDS011;28727;50.068;14.452;2023-02-28T16:28:28;14.95;;;9.30;;
43114;SDS011;28727;50.068;14.452;2023-02-28T16:31:05;16.90;;;8.95;;
43114;SDS011;28727;50.068;14.452;2023-02-28T16:33:38;15.30;;;9.57;;
43114;SDS011;28727;50.068;14.452;2023-02-28T16:36:18;20.58;;;10.50;;
43114;SDS011;28727;50.068;14.452;2023-02-28T16:38:53;17.38;;;10.13;;
43114;SDS011;28727;50.068;14.452;2023-02-28T16:41:26;16.20;;;9.95;;
43114;SDS011;28727;50.068;14.452;2023-02-28T16:44:00;18.25;;;9.98;;
43114;SDS011;28727;50.068;14.452;2023-02-28T16:46:35;16.60;;;10.15;;
43114;SDS011;28727;50.068;14.452;2023-02-28T16:49:11;20.05;;;11.40;;
43114;SDS011;28727;50.068;14.452;2023-02-28T16:51:47;15.95;;;9.98;;
43114;SDS011;28727;50.068;14.452;2023-02-28T16:54:18;16.80;;;9.75;;
43114;SDS011;28727;50.068;14.452;2023-02-28T16:56:50;15.02;;;9.70;;
43114;SDS011;28727;50.068;14.452;2023-02-28T16:59:27;16.90;;;10.40;;
43114;SDS011;28727;50.068;14.452;2023-02-28T17:02:07;16.58;;;10.10;;
43114;SDS011;28727;50.068;14.452;2023-02-28T17:04:46;19.05;;;10.05;;
43114;SDS011;28727;50.068;14.452;2023-02-28T17:07:18;18.35;;;10.00;;
43114;SDS011;28727;50.068;14.452;2023-02-28T17:09:51;19.33;;;9.75;;
43114;SDS011;28727;50.068;14.452;2023-02-28T17:12:27;15.35;;;9.25;;
43114;SDS011;28727;50.068;14.452;2023-02-28T17:15:02;16.50;;;9.95;;
43114;SDS011;28727;50.068;14.452;2023-02-28T17:17:37;18.05;;;10.05;;
43114;SDS011;28727;50.068;14.452;2023-02-28T17:20:14;19.40;;;10.55;;
43114;SDS011;28727;50.068;14.452;2023-02-28T17:22:55;16.33;;;9.93;;
43114;SDS011;28727;50.068;14.452;2023-02-28T17:25:27;18.85;;;10.50;;
43114;SDS011;28727;50.068;14.452;2023-02-28T17:28:01;16.45;;;10.38;;
43114;SDS011;28727;50.068;14.452;2023-02-28T17:30:34;19.42;;;10.30;;
43114;SDS011;28727;50.068;14.452;2023-02-28T17:33:06;19.92;;;10.43;;
43114;SDS011;28727;50.068;14.452;2023-02-28T17:35:38;19.65;;;11.75;;
43114;SDS011;28727;50.068;14.452;2023-02-28T17:38:18;19.98;;;11.05;;
43114;SDS011;28727;50.068;14.452;2023-02-28T17:40:53;18.15;;;10.98;;
43114;SDS011;28727;50.068;14.452;2023-02-28T17:43:28;18.00;;;10.70;;
43114;SDS011;28727;50.068;14.452;2023-02-28T17:46:00;18.10;;;11.18;;
43114;SDS011;28727;50.068;14.452;2023-02-28T17:48:33;23.45;;;12.30;;
43114;SDS011;28727;50.068;14.452;2023-02-28T17:51:08;25.75;;;13.55;;
43114;SDS011;28727;50.068;14.452;2023-02-28T17:53:42;24.17;;;13.65;;
43114;SDS011;28727;50.068;14.452;2023-02-28T17:56:19;32.30;;;13.50;;
43114;SDS011;28727;50.068;14.452;2023-02-28T17:58:57;26.10;;;13.77;;
43114;SDS011;28727;50.068;14.452;2023-02-28T18:01:39;24.25;;;13.07;;
43114;SDS011;28727;50.068;14.452;2023-02-28T18:04:13;24.08;;;13.00;;